sensor_id;sensor_type;location;lat;lon;timestamp;P1;durP1;ratioP1;P2;durP2;ratioP2
71462;SDS011;59266;52.608;13.260;2023-01-01T00:02:09;21.80;;;11.32;;
71462;SDS011;59266;52.608;13.260;2023-01-01T00:04:44;20.15;;;8.93;;
71462;SDS011;59266;52.608;13.260;2023-01-01T00:07:17;24.88;;;13.13;;
71462;SDS011;59266;52.608;13.260;2023-01-01T00:09:44;20.08;;;9.50;;
71462;SDS011;59266;52.608;13.260;2023-01-01T00:12:37;19.63;;;8.88;;
71462;SDS011;59266;52.608;13.260;2023-01-01T00:15:14;18.35;;;8.23;;
71462;SDS011;59266;52.608;13.260;2023-01-01T00:17:40;21.40;;;8.05;;
71462;SDS011;59266;52.608;13.260;2023-01-01T00:20:07;70.60;;;26.50;;
71462;SDS011;59266;52.608;13.260;2023-01-01T00:22:34;14.13;;;6.40;;
71462;SDS011;59266;52.608;13.260;2023-01-01T00:25:19;15.23;;;6.50;;
71462;SDS011;59266;52.608;13.260;2023-01-01T00:27:46;13.77;;;5.85;;
71462;SDS011;59266;52.608;13.260;2023-01-01T00:30:13;15.75;;;6.40;;
71462;SDS011;59266;52.608;13.260;2023-01-01T00:33:02;11.32;;;4.78;;
71462;SDS011;59266;52.608;13.260;2023-01-01T00:35:32;15.05;;;4.90;;
71462;SDS011;59266;52.608;13.260;2023-01-01T00:38:20;12.25;;;4.43;;
71462;SDS011;59266;52.608;13.260;2023-01-01T00:41:11;12.73;;;4.90;;
71462;SDS011;59266;52.608;13.260;2023-01-01T00:44:21;12.50;;;4.45;;
71462;SDS011;59266;52.608;13.260;2023-01-01T00:46:51;8.73;;;4.30;;
71462;SDS011;59266;52.608;13.260;2023-01-01T00:52:49;8.68;;;3.20;;
71462;SDS011;59266;52.608;13.260;2023-01-01T00:55:18;13.43;;;3.20;;
71462;SDS011;59266;52.608;13.260;2023-01-01T00:58:43;8.95;;;2.95;;
71462;SDS011;59266;52.608;13.260;2023-01-01T01:01:26;10.00;;;2.88;;
71462;SDS011;59266;52.608;13.260;2023-01-01T01:03:53;11.85;;;3.05;;
71462;SDS011;59266;52.608;13.260;2023-01-01T01:06:19;7.38;;;2.60;;
71462;SDS011;59266;52.608;13.260;2023-01-01T01:08:47;9.20;;;2.58;;
71462;SDS011;59266;52.608;13.260;2023-01-01T01:11:17;6.93;;;2.47;;
71462;SDS011;59266;52.608;13.260;2023-01-01T01:13:49;8.63;;;3.00;;
71462;SDS011;59266;52.608;13.260;2023-01-01T01:18:57;9.05;;;2.80;;
71462;SDS011;59266;52.608;13.260;2023-01-01T01:21:26;11.60;;;3.00;;
71462;SDS011;59266;52.608;13.260;2023-01-01T01:23:56;10.40;;;2.83;;
71462;SDS011;59266;52.608;13.260;2023-01-01T01:26:26;10.27;;;3.22;;
71462;SDS011;59266;52.608;13.260;2023-01-01T01:28:55;11.85;;;3.22;;
71462;SDS011;59266;52.608;13.260;2023-01-01T01:31:22;11.30;;;3.90;;
71462;SDS011;59266;52.608;13.260;2023-01-01T01:33:51;10.75;;;2.53;;
71462;SDS011;59266;52.608;13.260;2023-01-01T01:36:18;9.75;;;2.85;;
71462;SDS011;59266;52.608;13.260;2023-01-01T01:38:44;9.38;;;2.70;;
71462;SDS011;59266;52.608;13.260;2023-01-01T01:41:12;12.68;;;2.92;;
71462;SDS011;59266;52.608;13.260;2023-01-01T01:44:01;9.25;;;2.88;;
71462;SDS011;59266;52.608;13.260;2023-01-01T01:46:41;9.27;;;2.88;;
71462;SDS011;59266;52.608;13.260;2023-01-01T01:49:16;9.57;;;2.78;;
71462;SDS011;59266;52.608;13.260;2023-01-01T01:51:49;9.63;;;3.95;;
71462;SDS011;59266;52.608;13.260;2023-01-01T01:54:17;9.10;;;2.70;;
71462;SDS011;59266;52.608;13.260;2023-01-01T01:56:49;9.50;;;2.60;;
71462;SDS011;59266;52.608;13.260;2023-01-01T01:59:24;11.45;;;3.05;;
71462;SDS011;59266;52.608;13.260;2023-01-01T02:01:55;11.18;;;2.90;;
71462;SDS011;59266;52.608;13.260;2023-01-01T02:04:23;12.90;;;3.10;;
71462;SDS011;59266;52.608;13.260;2023-01-01T02:06:50;14.52;;;3.25;;
71462;SDS011;59266;52.608;13.260;2023-01-01T02:09:18;9.65;;;3.25;;
71462;SDS011;59266;52.608;13.260;2023-01-01T02:11:45;9.65;;;3.22;;
71462;SDS011;59266;52.608;13.260;2023-01-01T02:14:11;8.85;;;3.22;;
71462;SDS011;59266;52.608;13.260;2023-01-01T02:16:58;13.02;;;3.85;;
71462;SDS011;59266;52.608;13.260;2023-01-01T02:19:40;11.63;;;3.47;;
71462;SDS011;59266;52.608;13.260;2023-01-01T02:22:25;9.90;;;3.72;;
71462;SDS011;59266;52.608;13.260;2023-01-01T02:24:56;11.05;;;3.85;;
71462;SDS011;59266;52.608;13.260;2023-01-01T02:30:31;14.07;;;4.30;;
71462;SDS011;59266;52.608;13.260;2023-01-01T02:33:04;10.70;;;3.85;;
71462;SDS011;59266;52.608;13.260;2023-01-01T02:35:36;11.48;;;3.40;;
71462;SDS011;59266;52.608;13.260;2023-01-01T02:38:15;11.60;;;3.70;;
71462;SDS011;59266;52.608;13.260;2023-01-01T02:40:51;15.10;;;4.05;;
71462;SDS011;59266;52.608;13.260;2023-01-01T02:43:23;10.93;;;3.55;;
71462;SDS011;59266;52.608;13.260;2023-01-01T02:45:51;9.48;;;3.67;;
71462;SDS011;59266;52.608;13.260;2023-01-01T02:48:36;13.10;;;3.97;;
71462;SDS011;59266;52.608;13.260;2023-01-01T02:56:32;10.88;;;3.60;;
71462;SDS011;59266;52.608;13.260;2023-01-01T02:59:20;10.25;;;3.50;;
71462;SDS011;59266;52.608;13.260;2023-01-01T03:08:03;14.18;;;4.25;;
71462;SDS011;59266;52.608;13.260;2023-01-01T03:10:44;16.45;;;4.57;;
71462;SDS011;59266;52.608;13.260;2023-01-01T03:13:28;14.80;;;3.85;;
71462;SDS011;59266;52.608;13.260;2023-01-01T03:16:13;19.35;;;5.90;;
71462;SDS011;59266;52.608;13.260;2023-01-01T03:21:40;10.90;;;3.88;;
71462;SDS011;59266;52.608;13.260;2023-01-01T03:27:05;9.60;;;3.30;;
71462;SDS011;59266;52.608;13.260;2023-01-01T03:29:54;16.17;;;3.40;;
71462;SDS011;59266;52.608;13.260;2023-01-01T03:32:26;11.25;;;3.30;;
71462;SDS011;59266;52.608;13.260;2023-01-01T03:35:18;9.98;;;3.25;;
71462;SDS011;59266;52.608;13.260;2023-01-01T03:37:49;10.60;;;3.40;;
71462;SDS011;59266;52.608;13.260;2023-01-01T03:40:19;12.70;;;3.10;;
71462;SDS011;59266;52.608;13.260;2023-01-01T03:42:49;10.52;;;3.13;;
71462;SDS011;59266;52.608;13.260;2023-01-01T03:48:02;10.80;;;3.42;;
71462;SDS011;59266;52.608;13.260;2023-01-01T03:53:43;9.65;;;3.03;;
71462;SDS011;59266;52.608;13.260;2023-01-01T03:56:15;15.25;;;3.13;;
71462;SDS011;59266;52.608;13.260;2023-01-01T03:58:48;8.82;;;2.67;;
71462;SDS011;59266;52.608;13.260;2023-01-01T04:01:31;13.02;;;3.00;;
71462;SDS011;59266;52.608;13.260;2023-01-01T04:04:02;8.38;;;2.88;;
71462;SDS011;59266;52.608;13.260;2023-01-01T04:06:33;8.65;;;3.22;;
71462;SDS011;59266;52.608;13.260;2023-01-01T04:09:00;11.15;;;3.38;;
71462;SDS011;59266;52.608;13.260;2023-01-01T04:11:30;9.98;;;2.63;;
71462;SDS011;59266;52.608;13.260;2023-01-01T04:14:26;7.13;;;2.63;;
71462;SDS011;59266;52.608;13.260;2023-01-01T04:16:58;8.27;;;2.75;;
71462;SDS011;59266;52.608;13.260;2023-01-01T04:19:25;15.40;;;3.20;;
71462;SDS011;59266;52.608;13.260;2023-01-01T04:21:52;11.70;;;2.80;;
71462;SDS011;59266;52.608;13.260;2023-01-01T04:24:19;12.55;;;3.00;;
71462;SDS011;59266;52.608;13.260;2023-01-01T04:26:46;9.63;;;3.10;;
71462;SDS011;59266;52.608;13.260;2023-01-01T04:29:15;15.20;;;3.42;;
71462;SDS011;59266;52.608;13.260;2023-01-01T04:31:42;10.65;;;2.88;;
71462;SDS011;59266;52.608;13.260;2023-01-01T04:34:09;9.40;;;2.78;;
71462;SDS011;59266;52.608;13.260;2023-01-01T04:36:35;11.43;;;3.03;;
71462;SDS011;59266;52.608;13.260;2023-01-01T04:39:04;14.10;;;3.17;;
71462;SDS011;59266;52.608;13.260;2023-01-01T04:41:31;9.95;;;3.38;;
71462;SDS011;59266;52.608;13.260;2023-01-01T04:43:58;8.50;;;2.72;;
71462;SDS011;59266;52.608;13.260;2023-01-01T04:46:25;11.73;;;3.22;;
71462;SDS011;59266;52.608;13.260;2023-01-01T04:48:52;12.48;;;3.55;;
71462;SDS011;59266;52.608;13.260;2023-01-01T04:51:19;12.20;;;4.13;;
71462;SDS011;59266;52.608;13.260;2023-01-01T04:53:47;10.10;;;2.83;;
71462;SDS011;59266;52.608;13.260;2023-01-01T04:56:15;8.70;;;3.17;;
71462;SDS011;59266;52.608;13.260;2023-01-01T04:58:43;9.90;;;3.30;;
71462;SDS011;59266;52.608;13.260;2023-01-01T05:01:18;14.35;;;4.05;;
71462;SDS011;59266;52.608;13.260;2023-01-01T05:03:47;10.82;;;3.10;;
71462;SDS011;59266;52.608;13.260;2023-01-01T05:06:14;13.05;;;3.03;;
71462;SDS011;59266;52.608;13.260;2023-01-01T05:08:43;11.70;;;3.17;;
71462;SDS011;59266;52.608;13.260;2023-01-01T05:11:12;9.00;;;2.63;;
71462;SDS011;59266;52.608;13.260;2023-01-01T05:13:44;10.05;;;3.00;;
71462;SDS011;59266;52.608;13.260;2023-01-01T05:16:15;8.57;;;3.10;;
71462;SDS011;59266;52.608;13.260;2023-01-01T05:18:44;8.65;;;3.00;;
71462;SDS011;59266;52.608;13.260;2023-01-01T05:21:12;9.85;;;3.35;;
71462;SDS011;59266;52.608;13.260;2023-01-01T05:23:41;10.45;;;3.50;;
71462;SDS011;59266;52.608;13.260;2023-01-01T05:28:47;10.45;;;3.00;;
71462;SDS011;59266;52.608;13.260;2023-01-01T05:31:18;11.43;;;3.40;;
71462;SDS011;59266;52.608;13.260;2023-01-01T05:33:47;10.25;;;2.70;;
71462;SDS011;59266;52.608;13.260;2023-01-01T05:36:15;11.05;;;2.90;;
71462;SDS011;59266;52.608;13.260;2023-01-01T05:38:43;15.88;;;3.10;;
71462;SDS011;59266;52.608;13.260;2023-01-01T05:41:12;10.40;;;3.10;;
71462;SDS011;59266;52.608;13.260;2023-01-01T05:43:40;12.27;;;2.88;;
71462;SDS011;59266;52.608;13.260;2023-01-01T05:46:09;8.63;;;2.80;;
71462;SDS011;59266;52.608;13.260;2023-01-01T05:48:37;10.05;;;2.92;;
71462;SDS011;59266;52.608;13.260;2023-01-01T05:51:04;11.35;;;3.08;;
71462;SDS011;59266;52.608;13.260;2023-01-01T05:53:36;8.63;;;2.75;;
71462;SDS011;59266;52.608;13.260;2023-01-01T05:56:03;9.68;;;2.70;;
71462;SDS011;59266;52.608;13.260;2023-01-01T05:58:31;17.83;;;3.30;;
71462;SDS011;59266;52.608;13.260;2023-01-01T06:03:31;9.02;;;2.58;;
71462;SDS011;59266;52.608;13.260;2023-01-01T06:06:01;8.80;;;2.78;;
71462;SDS011;59266;52.608;13.260;2023-01-01T06:08:29;10.82;;;3.17;;
71462;SDS011;59266;52.608;13.260;2023-01-01T06:10:56;7.97;;;2.65;;
71462;SDS011;59266;52.608;13.260;2023-01-01T06:15:54;10.27;;;2.88;;
71462;SDS011;59266;52.608;13.260;2023-01-01T06:18:23;10.98;;;2.50;;
71462;SDS011;59266;52.608;13.260;2023-01-01T06:20:51;9.23;;;2.60;;
71462;SDS011;59266;52.608;13.260;2023-01-01T06:23:18;9.18;;;2.80;;
71462;SDS011;59266;52.608;13.260;2023-01-01T06:25:45;8.02;;;2.70;;
71462;SDS011;59266;52.608;13.260;2023-01-01T06:28:12;14.77;;;2.83;;
71462;SDS011;59266;52.608;13.260;2023-01-01T06:30:38;8.52;;;3.00;;
71462;SDS011;59266;52.608;13.260;2023-01-01T06:33:07;9.40;;;2.63;;
71462;SDS011;59266;52.608;13.260;2023-01-01T06:35:33;7.78;;;2.45;;
71462;SDS011;59266;52.608;13.260;2023-01-01T06:38:00;9.13;;;2.72;;
71462;SDS011;59266;52.608;13.260;2023-01-01T06:40:27;13.25;;;2.40;;
71462;SDS011;59266;52.608;13.260;2023-01-01T06:42:56;9.93;;;2.50;;
71462;SDS011;59266;52.608;13.260;2023-01-01T06:45:24;10.13;;;2.67;;
71462;SDS011;59266;52.608;13.260;2023-01-01T06:47:50;8.00;;;2.45;;
71462;SDS011;59266;52.608;13.260;2023-01-01T06:50:17;8.40;;;2.67;;
71462;SDS011;59266;52.608;13.260;2023-01-01T06:52:45;7.05;;;2.40;;
71462;SDS011;59266;52.608;13.260;2023-01-01T06:55:12;9.43;;;2.30;;
71462;SDS011;59266;52.608;13.260;2023-01-01T06:57:38;7.75;;;2.85;;
71462;SDS011;59266;52.608;13.260;2023-01-01T07:00:05;9.25;;;2.70;;
71462;SDS011;59266;52.608;13.260;2023-01-01T07:02:32;10.13;;;2.95;;
71462;SDS011;59266;52.608;13.260;2023-01-01T07:05:00;10.75;;;2.70;;
71462;SDS011;59266;52.608;13.260;2023-01-01T07:07:26;8.32;;;2.80;;
71462;SDS011;59266;52.608;13.260;2023-01-01T07:10:00;8.68;;;2.50;;
71462;SDS011;59266;52.608;13.260;2023-01-01T07:12:27;9.02;;;2.80;;
71462;SDS011;59266;52.608;13.260;2023-01-01T07:14:54;8.18;;;2.53;;
71462;SDS011;59266;52.608;13.260;2023-01-01T07:17:21;9.60;;;3.08;;
71462;SDS011;59266;52.608;13.260;2023-01-01T07:19:47;7.28;;;2.47;;
71462;SDS011;59266;52.608;13.260;2023-01-01T07:22:14;8.63;;;2.70;;
71462;SDS011;59266;52.608;13.260;2023-01-01T07:24:41;10.75;;;2.60;;
71462;SDS011;59266;52.608;13.260;2023-01-01T07:27:07;7.53;;;2.38;;
71462;SDS011;59266;52.608;13.260;2023-01-01T07:29:34;7.53;;;2.67;;
71462;SDS011;59266;52.608;13.260;2023-01-01T07:32:01;9.98;;;2.80;;
71462;SDS011;59266;52.608;13.260;2023-01-01T07:34:29;10.50;;;2.70;;
71462;SDS011;59266;52.608;13.260;2023-01-01T07:36:55;8.80;;;3.00;;
71462;SDS011;59266;52.608;13.260;2023-01-01T07:39:22;11.57;;;2.88;;
71462;SDS011;59266;52.608;13.260;2023-01-01T07:41:49;12.00;;;2.63;;
71462;SDS011;59266;52.608;13.260;2023-01-01T07:44:16;8.50;;;2.50;;
71462;SDS011;59266;52.608;13.260;2023-01-01T07:46:42;10.98;;;3.53;;
71462;SDS011;59266;52.608;13.260;2023-01-01T07:49:09;9.95;;;2.85;;
71462;SDS011;59266;52.608;13.260;2023-01-01T07:51:36;8.88;;;2.75;;
71462;SDS011;59266;52.608;13.260;2023-01-01T07:54:03;9.70;;;2.58;;
71462;SDS011;59266;52.608;13.260;2023-01-01T07:56:33;9.70;;;3.10;;
71462;SDS011;59266;52.608;13.260;2023-01-01T07:59:00;9.85;;;2.83;;
71462;SDS011;59266;52.608;13.260;2023-01-01T08:01:27;13.82;;;2.88;;
71462;SDS011;59266;52.608;13.260;2023-01-01T08:03:54;8.77;;;2.85;;
71462;SDS011;59266;52.608;13.260;2023-01-01T08:06:20;9.65;;;3.33;;
71462;SDS011;59266;52.608;13.260;2023-01-01T08:08:47;8.68;;;2.75;;
71462;SDS011;59266;52.608;13.260;2023-01-01T08:11:14;6.75;;;2.90;;
71462;SDS011;59266;52.608;13.260;2023-01-01T08:13:41;8.50;;;3.15;;
71462;SDS011;59266;52.608;13.260;2023-01-01T08:16:08;8.35;;;2.55;;
71462;SDS011;59266;52.608;13.260;2023-01-01T08:18:35;9.85;;;2.70;;
71462;SDS011;59266;52.608;13.260;2023-01-01T08:21:02;10.57;;;3.78;;
71462;SDS011;59266;52.608;13.260;2023-01-01T08:23:29;9.70;;;2.92;;
71462;SDS011;59266;52.608;13.260;2023-01-01T08:26:00;11.13;;;3.38;;
71462;SDS011;59266;52.608;13.260;2023-01-01T08:28:27;10.85;;;3.83;;
71462;SDS011;59266;52.608;13.260;2023-01-01T08:30:54;10.23;;;3.13;;
71462;SDS011;59266;52.608;13.260;2023-01-01T08:33:21;10.35;;;3.30;;
71462;SDS011;59266;52.608;13.260;2023-01-01T08:35:50;10.18;;;3.38;;
71462;SDS011;59266;52.608;13.260;2023-01-01T08:38:19;8.77;;;3.05;;
71462;SDS011;59266;52.608;13.260;2023-01-01T08:40:46;10.65;;;3.45;;
71462;SDS011;59266;52.608;13.260;2023-01-01T08:43:13;11.93;;;3.40;;
71462;SDS011;59266;52.608;13.260;2023-01-01T08:45:40;10.23;;;3.40;;
71462;SDS011;59266;52.608;13.260;2023-01-01T08:48:06;9.95;;;3.50;;
71462;SDS011;59266;52.608;13.260;2023-01-01T08:50:33;10.38;;;3.33;;
71462;SDS011;59266;52.608;13.260;2023-01-01T08:53:00;10.90;;;3.55;;
71462;SDS011;59266;52.608;13.260;2023-01-01T08:55:26;10.20;;;3.78;;
71462;SDS011;59266;52.608;13.260;2023-01-01T08:57:53;9.55;;;3.60;;
71462;SDS011;59266;52.608;13.260;2023-01-01T09:00:19;12.27;;;3.75;;
71462;SDS011;59266;52.608;13.260;2023-01-01T09:02:49;11.40;;;3.83;;
71462;SDS011;59266;52.608;13.260;2023-01-01T09:05:16;9.32;;;3.45;;
71462;SDS011;59266;52.608;13.260;2023-01-01T09:07:42;10.57;;;3.60;;
71462;SDS011;59266;52.608;13.260;2023-01-01T09:10:09;10.23;;;3.40;;
71462;SDS011;59266;52.608;13.260;2023-01-01T09:12:36;10.38;;;3.38;;
71462;SDS011;59266;52.608;13.260;2023-01-01T09:15:02;8.93;;;3.53;;
71462;SDS011;59266;52.608;13.260;2023-01-01T09:17:30;8.82;;;3.47;;
71462;SDS011;59266;52.608;13.260;2023-01-01T09:19:56;11.45;;;3.78;;
71462;SDS011;59266;52.608;13.260;2023-01-01T09:22:23;12.57;;;3.75;;
71462;SDS011;59266;52.608;13.260;2023-01-01T09:24:50;9.18;;;3.47;;
71462;SDS011;59266;52.608;13.260;2023-01-01T09:27:16;9.32;;;3.20;;
71462;SDS011;59266;52.608;13.260;2023-01-01T09:29:43;9.88;;;3.38;;
71462;SDS011;59266;52.608;13.260;2023-01-01T09:32:10;9.60;;;3.33;;
71462;SDS011;59266;52.608;13.260;2023-01-01T09:34:36;11.88;;;3.45;;
71462;SDS011;59266;52.608;13.260;2023-01-01T09:37:04;9.80;;;3.30;;
71462;SDS011;59266;52.608;13.260;2023-01-01T09:39:30;9.90;;;3.50;;
71462;SDS011;59266;52.608;13.260;2023-01-01T09:44:48;8.05;;;3.17;;
71462;SDS011;59266;52.608;13.260;2023-01-01T09:47:31;9.32;;;3.42;;
71462;SDS011;59266;52.608;13.260;2023-01-01T09:50:04;7.80;;;2.97;;
71462;SDS011;59266;52.608;13.260;2023-01-01T09:52:57;8.10;;;3.03;;
71462;SDS011;59266;52.608;13.260;2023-01-01T09:55:50;11.95;;;3.00;;
71462;SDS011;59266;52.608;13.260;2023-01-01T09:58:26;9.32;;;3.47;;
71462;SDS011;59266;52.608;13.260;2023-01-01T10:00:55;11.70;;;2.97;;
71462;SDS011;59266;52.608;13.260;2023-01-01T10:03:37;10.00;;;3.20;;
71462;SDS011;59266;52.608;13.260;2023-01-01T10:06:22;8.15;;;3.08;;
71462;SDS011;59266;52.608;13.260;2023-01-01T10:11:39;10.20;;;3.47;;
71462;SDS011;59266;52.608;13.260;2023-01-01T10:14:33;6.57;;;2.45;;
71462;SDS011;59266;52.608;13.260;2023-01-01T10:17:14;14.77;;;3.13;;
71462;SDS011;59266;52.608;13.260;2023-01-01T10:22:21;8.30;;;3.00;;
71462;SDS011;59266;52.608;13.260;2023-01-01T10:25:07;10.50;;;3.25;;
71462;SDS011;59266;52.608;13.260;2023-01-01T10:30:25;9.35;;;2.80;;
71462;SDS011;59266;52.608;13.260;2023-01-01T10:32:53;9.10;;;2.67;;
71462;SDS011;59266;52.608;13.260;2023-01-01T10:37:59;7.80;;;2.67;;
71462;SDS011;59266;52.608;13.260;2023-01-01T10:40:29;8.68;;;2.42;;
71462;SDS011;59266;52.608;13.260;2023-01-01T10:42:56;8.23;;;2.70;;
71462;SDS011;59266;52.608;13.260;2023-01-01T10:45:29;9.23;;;2.53;;
71462;SDS011;59266;52.608;13.260;2023-01-01T10:48:17;10.80;;;2.90;;
71462;SDS011;59266;52.608;13.260;2023-01-01T10:51:00;10.75;;;3.10;;
71462;SDS011;59266;52.608;13.260;2023-01-01T10:53:41;6.97;;;2.53;;
71462;SDS011;59266;52.608;13.260;2023-01-01T10:56:16;9.00;;;2.70;;
71462;SDS011;59266;52.608;13.260;2023-01-01T10:58:45;7.88;;;2.47;;
71462;SDS011;59266;52.608;13.260;2023-01-01T11:04:00;10.35;;;2.72;;
71462;SDS011;59266;52.608;13.260;2023-01-01T11:06:40;9.70;;;2.20;;
71462;SDS011;59266;52.608;13.260;2023-01-01T11:09:27;12.88;;;2.92;;
71462;SDS011;59266;52.608;13.260;2023-01-01T11:11:57;8.55;;;2.40;;
71462;SDS011;59266;52.608;13.260;2023-01-01T11:14:40;9.07;;;2.72;;
71462;SDS011;59266;52.608;13.260;2023-01-01T11:17:19;7.18;;;2.38;;
71462;SDS011;59266;52.608;13.260;2023-01-01T11:19:48;9.85;;;2.55;;
71462;SDS011;59266;52.608;13.260;2023-01-01T11:22:34;7.97;;;2.28;;
71462;SDS011;59266;52.608;13.260;2023-01-01T11:25:17;12.40;;;2.20;;
71462;SDS011;59266;52.608;13.260;2023-01-01T11:27:44;9.18;;;2.60;;
71462;SDS011;59266;52.608;13.260;2023-01-01T11:32:58;7.82;;;2.47;;
71462;SDS011;59266;52.608;13.260;2023-01-01T11:35:29;7.88;;;2.28;;
71462;SDS011;59266;52.608;13.260;2023-01-01T11:37:58;7.10;;;1.85;;
71462;SDS011;59266;52.608;13.260;2023-01-01T11:40:32;8.77;;;2.30;;
71462;SDS011;59266;52.608;13.260;2023-01-01T11:43:03;6.65;;;1.77;;
71462;SDS011;59266;52.608;13.260;2023-01-01T11:48:28;8.60;;;2.35;;
71462;SDS011;59266;52.608;13.260;2023-01-01T11:50:59;9.35;;;2.10;;
71462;SDS011;59266;52.608;13.260;2023-01-01T11:53:34;6.68;;;2.17;;
71462;SDS011;59266;52.608;13.260;2023-01-01T11:56:05;7.45;;;2.13;;
71462;SDS011;59266;52.608;13.260;2023-01-01T12:02:09;7.28;;;2.50;;
71462;SDS011;59266;52.608;13.260;2023-01-01T12:04:30;9.07;;;2.30;;
71462;SDS011;59266;52.608;13.260;2023-01-01T12:07:27;7.22;;;2.10;;
71462;SDS011;59266;52.608;13.260;2023-01-01T12:10:11;11.82;;;2.38;;
71462;SDS011;59266;52.608;13.260;2023-01-01T12:12:55;7.60;;;2.28;;
71462;SDS011;59266;52.608;13.260;2023-01-01T12:15:40;7.68;;;2.00;;
71462;SDS011;59266;52.608;13.260;2023-01-01T12:21:23;8.48;;;2.10;;
71462;SDS011;59266;52.608;13.260;2023-01-01T12:23:51;9.07;;;2.40;;
71462;SDS011;59266;52.608;13.260;2023-01-01T12:26:24;7.32;;;2.22;;
71462;SDS011;59266;52.608;13.260;2023-01-01T12:29:14;6.68;;;2.20;;
71462;SDS011;59266;52.608;13.260;2023-01-01T12:32:08;7.32;;;2.13;;
71462;SDS011;59266;52.608;13.260;2023-01-01T12:34:49;7.25;;;2.10;;
71462;SDS011;59266;52.608;13.260;2023-01-01T12:37:37;7.95;;;2.13;;
71462;SDS011;59266;52.608;13.260;2023-01-01T12:43:21;5.85;;;1.90;;
71462;SDS011;59266;52.608;13.260;2023-01-01T12:51:56;6.68;;;2.20;;
71462;SDS011;59266;52.608;13.260;2023-01-01T12:54:38;5.80;;;1.90;;
71462;SDS011;59266;52.608;13.260;2023-01-01T12:57:31;10.80;;;2.17;;
71462;SDS011;59266;52.608;13.260;2023-01-01T13:00:22;7.25;;;2.28;;
71462;SDS011;59266;52.608;13.260;2023-01-01T13:02:59;6.70;;;2.00;;
71462;SDS011;59266;52.608;13.260;2023-01-01T13:05:39;7.38;;;1.90;;
71462;SDS011;59266;52.608;13.260;2023-01-01T13:08:10;8.10;;;2.03;;
71462;SDS011;59266;52.608;13.260;2023-01-01T13:10:41;8.50;;;1.98;;
71462;SDS011;59266;52.608;13.260;2023-01-01T13:13:11;9.60;;;2.22;;
71462;SDS011;59266;52.608;13.260;2023-01-01T13:20:44;7.55;;;2.10;;
71462;SDS011;59266;52.608;13.260;2023-01-01T13:45:31;6.32;;;1.65;;
71462;SDS011;59266;52.608;13.260;2023-01-01T13:58:03;8.75;;;2.20;;
71462;SDS011;59266;52.608;13.260;2023-01-01T14:00:53;8.38;;;2.10;;
71462;SDS011;59266;52.608;13.260;2023-01-01T14:03:40;7.70;;;1.90;;
71462;SDS011;59266;52.608;13.260;2023-01-01T14:06:10;6.43;;;2.08;;
71462;SDS011;59266;52.608;13.260;2023-01-01T14:08:40;9.93;;;2.40;;
71462;SDS011;59266;52.608;13.260;2023-01-01T14:11:20;7.20;;;2.03;;
71462;SDS011;59266;52.608;13.260;2023-01-01T14:13:49;11.20;;;2.20;;
71462;SDS011;59266;52.608;13.260;2023-01-01T14:16:16;10.48;;;3.03;;
71462;SDS011;59266;52.608;13.260;2023-01-01T14:18:44;5.90;;;1.98;;
71462;SDS011;59266;52.608;13.260;2023-01-01T14:21:15;7.43;;;2.10;;
71462;SDS011;59266;52.608;13.260;2023-01-01T14:23:44;6.05;;;1.85;;
71462;SDS011;59266;52.608;13.260;2023-01-01T14:26:14;7.63;;;1.63;;
71462;SDS011;59266;52.608;13.260;2023-01-01T14:28:43;10.15;;;2.20;;
71462;SDS011;59266;52.608;13.260;2023-01-01T14:31:11;10.80;;;2.10;;
71462;SDS011;59266;52.608;13.260;2023-01-01T14:33:43;7.45;;;2.42;;
71462;SDS011;59266;52.608;13.260;2023-01-01T14:36:23;6.32;;;1.92;;
71462;SDS011;59266;52.608;13.260;2023-01-01T14:38:55;9.68;;;1.85;;
71462;SDS011;59266;52.608;13.260;2023-01-01T14:41:35;6.88;;;2.10;;
71462;SDS011;59266;52.608;13.260;2023-01-01T14:44:05;7.97;;;2.00;;
71462;SDS011;59266;52.608;13.260;2023-01-01T14:46:40;9.32;;;1.88;;
71462;SDS011;59266;52.608;13.260;2023-01-01T14:49:16;9.73;;;2.35;;
71462;SDS011;59266;52.608;13.260;2023-01-01T14:51:50;7.00;;;1.90;;
71462;SDS011;59266;52.608;13.260;2023-01-01T14:54:20;8.57;;;2.10;;
71462;SDS011;59266;52.608;13.260;2023-01-01T14:56:49;7.40;;;2.35;;
71462;SDS011;59266;52.608;13.260;2023-01-01T14:59:21;8.35;;;2.00;;
71462;SDS011;59266;52.608;13.260;2023-01-01T15:02:02;9.15;;;2.10;;
71462;SDS011;59266;52.608;13.260;2023-01-01T15:04:37;14.77;;;2.35;;
71462;SDS011;59266;52.608;13.260;2023-01-01T15:07:04;6.07;;;1.90;;
71462;SDS011;59266;52.608;13.260;2023-01-01T15:09:31;7.25;;;2.03;;
71462;SDS011;59266;52.608;13.260;2023-01-01T15:11:58;7.53;;;2.25;;
71462;SDS011;59266;52.608;13.260;2023-01-01T15:17:02;6.82;;;2.30;;
71462;SDS011;59266;52.608;13.260;2023-01-01T15:19:29;9.52;;;2.33;;
71462;SDS011;59266;52.608;13.260;2023-01-01T15:21:56;8.52;;;2.50;;
71462;SDS011;59266;52.608;13.260;2023-01-01T15:24:24;8.10;;;2.15;;
71462;SDS011;59266;52.608;13.260;2023-01-01T15:26:54;6.95;;;2.20;;
71462;SDS011;59266;52.608;13.260;2023-01-01T15:29:27;9.88;;;2.22;;
71462;SDS011;59266;52.608;13.260;2023-01-01T15:32:00;9.30;;;2.20;;
71462;SDS011;59266;52.608;13.260;2023-01-01T15:34:33;9.77;;;2.55;;
71462;SDS011;59266;52.608;13.260;2023-01-01T15:37:04;9.70;;;2.95;;
71462;SDS011;59266;52.608;13.260;2023-01-01T15:39:43;6.97;;;2.53;;
71462;SDS011;59266;52.608;13.260;2023-01-01T15:42:37;10.15;;;2.47;;
71462;SDS011;59266;52.608;13.260;2023-01-01T15:45:12;8.25;;;2.17;;
71462;SDS011;59266;52.608;13.260;2023-01-01T15:47:42;8.05;;;1.92;;
71462;SDS011;59266;52.608;13.260;2023-01-01T15:50:12;9.00;;;3.20;;
71462;SDS011;59266;52.608;13.260;2023-01-01T15:52:44;10.20;;;2.75;;
71462;SDS011;59266;52.608;13.260;2023-01-01T15:55:21;7.03;;;2.15;;
71462;SDS011;59266;52.608;13.260;2023-01-01T15:57:51;7.85;;;2.70;;
71462;SDS011;59266;52.608;13.260;2023-01-01T16:00:18;8.27;;;2.50;;
71462;SDS011;59266;52.608;13.260;2023-01-01T16:02:56;9.00;;;2.60;;
71462;SDS011;59266;52.608;13.260;2023-01-01T16:05:26;8.82;;;2.50;;
71462;SDS011;59266;52.608;13.260;2023-01-01T16:07:57;8.63;;;2.92;;
71462;SDS011;59266;52.608;13.260;2023-01-01T16:10:28;11.48;;;3.20;;
71462;SDS011;59266;52.608;13.260;2023-01-01T16:12:55;7.75;;;3.03;;
71462;SDS011;59266;52.608;13.260;2023-01-01T16:15:21;7.78;;;3.08;;
71462;SDS011;59266;52.608;13.260;2023-01-01T16:17:48;9.00;;;3.20;;
71462;SDS011;59266;52.608;13.260;2023-01-01T16:20:15;14.23;;;2.75;;
71462;SDS011;59266;52.608;13.260;2023-01-01T16:22:43;9.10;;;2.75;;
71462;SDS011;59266;52.608;13.260;2023-01-01T16:25:14;7.93;;;2.75;;
71462;SDS011;59266;52.608;13.260;2023-01-01T16:27:43;6.63;;;2.50;;
71462;SDS011;59266;52.608;13.260;2023-01-01T16:30:10;9.07;;;2.70;;
71462;SDS011;59266;52.608;13.260;2023-01-01T16:32:38;11.30;;;2.70;;
71462;SDS011;59266;52.608;13.260;2023-01-01T16:35:05;10.15;;;2.50;;
71462;SDS011;59266;52.608;13.260;2023-01-01T16:37:37;8.70;;;2.80;;
71462;SDS011;59266;52.608;13.260;2023-01-01T16:40:04;9.93;;;2.70;;
71462;SDS011;59266;52.608;13.260;2023-01-01T16:42:32;7.82;;;2.80;;
71462;SDS011;59266;52.608;13.260;2023-01-01T16:44:58;11.02;;;2.72;;
71462;SDS011;59266;52.608;13.260;2023-01-01T16:47:25;13.80;;;3.13;;
71462;SDS011;59266;52.608;13.260;2023-01-01T16:49:53;8.50;;;2.60;;
71462;SDS011;59266;52.608;13.260;2023-01-01T16:52:19;10.18;;;2.60;;
71462;SDS011;59266;52.608;13.260;2023-01-01T16:54:46;8.98;;;2.38;;